Terminal Aerodrome Forecast
Issued by NWS

Home | Current Version | Previous Version | Text Only | Print | Product List | Glossary On
Versions: 1 2 3 4 5 6 7 8 9 10 11 12 13 14 15 16 17 18 19 20 21 22 23 24 25 26 27 28 29 30 31
000
FTUS45 KGJT 262336
TAFDRO
TAF
KDRO 262336Z 2700/2724 28013KT P6SM FEW080
     FM270100 32005KT P6SM FEW200
     FM271500 15005KT P6SM VCSH BKN050
     FM271800 22010KT P6SM OVC040
     FM272100 23012G24KT P6SM OVC035
     FM272300 24011G19KT 6SM -SHRA OVC035=

USA.gov is the U.S. government's official web portal to all federal, state and local government web resources and services.